createdAt,value
2019-03-26T00:04:05.864Z,3.59
2019-03-26T00:09:10.491Z,3.59
2019-03-26T00:14:19.561Z,3.89
2019-03-26T00:19:27.863Z,3.81
2019-03-26T00:24:36.846Z,3.91
2019-03-26T00:29:49.551Z,3.69
2019-03-26T00:34:57.484Z,3.63
2019-03-26T00:40:05.915Z,3.80
2019-03-26T00:45:14.799Z,3.95
2019-03-26T00:50:23.176Z,3.71
2019-03-26T00:55:31.911Z,3.53
2019-03-26T01:00:47.117Z,3.48
2019-03-26T01:05:56.259Z,3.19
2019-03-26T01:11:05.702Z,3.41
2019-03-26T01:16:14.894Z,3.12
2019-03-26T01:21:25.091Z,3.28
2019-03-26T01:26:38.161Z,3.39
2019-03-26T01:31:49.563Z,3.50
2019-03-26T01:36:57.760Z,3.21
2019-03-26T01:42:06.623Z,3.25
2019-03-26T01:47:16.817Z,3.73
2019-03-26T01:52:26.056Z,3.31
2019-03-26T01:57:34.631Z,3.71
2019-03-26T02:02:47.856Z,3.75
2019-03-26T02:07:55.937Z,4.09
2019-03-26T02:13:07.335Z,4.09
2019-03-26T02:18:15.639Z,3.75
2019-03-26T02:23:23.514Z,3.56
2019-03-26T02:28:36.157Z,4.09
2019-03-26T02:33:43.850Z,3.55
2019-03-26T02:38:51.685Z,3.55
2019-03-26T02:43:59.993Z,4.03
2019-03-26T02:49:10.120Z,4.16
2019-03-26T02:54:18.170Z,4.10
2019-03-26T02:59:26.317Z,4.15
2019-03-26T03:04:34.219Z,4.24
2019-03-26T03:09:42.012Z,4.24
2019-03-26T03:14:50.777Z,4.04
2019-03-26T03:19:58.802Z,3.73
2019-03-26T03:25:07.844Z,3.76
2019-03-26T03:30:18.647Z,3.97
2019-03-26T03:35:26.307Z,4.00
2019-03-26T03:40:36.533Z,4.00
2019-03-26T03:45:47.468Z,4.17
2019-03-26T03:51:00.221Z,4.14
2019-03-26T03:56:09.401Z,4.21
2019-03-26T04:01:17.524Z,4.11
2019-03-26T04:06:25.516Z,4.11
2019-03-26T04:11:33.551Z,4.15
2019-03-26T04:16:42.279Z,4.11
2019-03-26T04:21:52.274Z,4.29
2019-03-26T04:27:00.021Z,4.45
2019-03-26T04:32:09.044Z,4.39
2019-03-26T04:37:17.054Z,4.23
2019-03-26T04:42:24.810Z,4.19
2019-03-26T04:47:32.935Z,3.94
2019-03-26T04:52:41.169Z,4.27
2019-03-26T04:57:49.369Z,4.07
2019-03-26T05:02:59.463Z,4.39
2019-03-26T05:08:10.772Z,4.41
2019-03-26T05:13:18.576Z,4.55
2019-03-26T05:18:26.749Z,4.46
2019-03-26T05:23:36.339Z,4.44
2019-03-26T05:28:44.118Z,4.62
2019-03-26T05:33:53.763Z,4.52
2019-03-26T05:39:01.893Z,4.58
2019-03-26T05:44:09.832Z,4.64
2019-03-26T05:49:18.302Z,4.77
2019-03-26T05:54:26.710Z,4.65
2019-03-26T05:59:35.130Z,4.73
2019-03-26T06:04:44.698Z,4.73
2019-03-26T06:09:55.242Z,4.63
2019-03-26T06:15:05.290Z,4.78
2019-03-26T06:20:15.234Z,4.82
2019-03-26T06:25:23.780Z,4.94
2019-03-26T06:30:31.463Z,5.08
2019-03-26T06:35:40.960Z,5.25
2019-03-26T06:40:51.329Z,5.34
2019-03-26T06:45:59.136Z,5.34
2019-03-26T06:51:09.343Z,5.54
2019-03-26T06:56:17.481Z,5.44
2019-03-26T07:01:25.727Z,5.74
2019-03-26T07:06:35.295Z,5.90
2019-03-26T07:11:43.009Z,6.44
2019-03-26T07:16:51.016Z,6.11
2019-03-26T07:22:00.192Z,6.13
2019-03-26T07:27:09.968Z,6.24
2019-03-26T07:32:17.796Z,5.95
2019-03-26T07:37:26.761Z,5.80
2019-03-26T07:42:36.095Z,5.65
2019-03-26T07:47:45.153Z,5.47
2019-03-26T07:52:54.679Z,5.25
2019-03-26T07:58:05.685Z,5.04
2019-03-26T08:03:16.210Z,5.21
2019-03-26T08:08:24.108Z,5.36
2019-03-26T08:13:32.035Z,5.32
2019-03-26T08:18:42.227Z,5.35
2019-03-26T08:23:51.656Z,5.37
2019-03-26T08:29:01.179Z,5.54
2019-03-26T08:34:22.909Z,5.51
2019-03-26T08:39:34.462Z,5.65
2019-03-26T08:44:42.273Z,5.65
2019-03-26T08:49:53.151Z,5.37
2019-03-26T08:55:04.259Z,5.73
2019-03-26T09:00:16.518Z,5.22
2019-03-26T09:05:26.785Z,4.89
2019-03-26T09:10:35.292Z,4.97
2019-03-26T09:15:43.203Z,4.97
2019-03-26T09:20:51.160Z,5.61
2019-03-26T09:26:00.348Z,5.68
2019-03-26T09:31:09.219Z,5.40
2019-03-26T09:36:18.281Z,5.70
2019-03-26T09:41:26.771Z,5.06
2019-03-26T09:46:36.926Z,5.40
2019-03-26T09:51:44.623Z,5.24
2019-03-26T09:56:56.370Z,5.67
2019-03-26T10:02:07.487Z,4.74
2019-03-26T10:07:21.410Z,5.17
2019-03-26T10:12:26.059Z,5.20
2019-03-26T10:17:34.277Z,5.45
2019-03-26T10:22:42.088Z,5.24
2019-03-26T10:27:52.577Z,5.71
2019-03-26T10:33:01.639Z,5.97
2019-03-26T10:38:16.075Z,5.88
2019-03-26T10:43:28.083Z,6.35
2019-03-26T10:48:36.582Z,6.71
2019-03-26T10:53:44.580Z,6.93
2019-03-26T10:58:55.501Z,7.32
2019-03-26T11:04:03.787Z,6.84
2019-03-26T11:09:22.983Z,7.14
2019-03-26T11:14:22.047Z,7.12
2019-03-26T11:19:29.967Z,7.33
2019-03-26T11:24:37.992Z,7.31
2019-03-26T11:29:46.631Z,7.70
2019-03-26T11:34:56.840Z,7.66
2019-03-26T11:40:05.491Z,7.48
2019-03-26T11:45:17.023Z,7.84
2019-03-26T11:50:25.368Z,7.90
2019-03-26T11:55:33.524Z,7.70
2019-03-26T12:00:49.151Z,7.57
2019-03-26T12:05:58.586Z,7.80
2019-03-26T12:11:10.527Z,7.97
2019-03-26T12:16:22.604Z,8.35
2019-03-26T12:21:31.437Z,7.97
2019-03-26T12:26:39.182Z,8.06
2019-03-26T12:31:47.276Z,8.25
2019-03-26T12:36:55.551Z,8.43
2019-03-26T12:42:05.748Z,7.99
2019-03-26T12:47:14.344Z,7.94
2019-03-26T12:52:22.217Z,8.24
2019-03-26T12:57:32.795Z,8.01
2019-03-26T13:02:43.550Z,8.58
2019-03-26T13:07:53.812Z,8.08
2019-03-26T13:13:04.863Z,7.99
2019-03-26T13:18:12.962Z,7.90
2019-03-26T13:23:20.880Z,7.58
2019-03-26T13:28:32.089Z,7.75
2019-03-26T13:33:40.984Z,7.22
2019-03-26T13:38:52.284Z,7.53
2019-03-26T13:44:01.308Z,7.65
2019-03-26T13:49:13.266Z,7.96
2019-03-26T13:54:21.582Z,8.05
2019-03-26T13:59:32.638Z,7.87
2019-03-26T14:20:22.874Z,7.80
2019-03-26T14:25:32.595Z,7.71
2019-03-26T14:30:51.933Z,7.90
2019-03-26T14:36:01.021Z,7.87
2019-03-26T14:41:10.080Z,7.94
2019-03-26T14:46:18.200Z,7.64
2019-03-26T14:51:27.303Z,7.61
2019-03-26T14:56:41.146Z,7.51
2019-03-26T15:01:56.103Z,7.76
2019-03-26T15:07:03.938Z,7.85
2019-03-26T15:12:12.240Z,8.07
2019-03-26T15:17:20.888Z,7.75
2019-03-26T15:22:29.067Z,7.90
2019-03-26T15:27:37.717Z,7.99
2019-03-26T15:32:48.646Z,8.04
2019-03-26T15:37:56.687Z,7.83
2019-03-26T15:43:07.377Z,7.50
2019-03-26T15:48:15.643Z,7.64
2019-03-26T15:53:26.033Z,7.72
2019-03-26T15:58:34.902Z,7.76
2019-03-26T16:03:42.878Z,7.71
2019-03-26T16:08:53.779Z,7.56
2019-03-26T16:14:04.465Z,7.51
2019-03-26T16:19:19.452Z,7.38
2019-03-26T16:24:28.111Z,7.53
2019-03-26T16:29:38.253Z,7.36
2019-03-26T16:34:47.457Z,7.49
2019-03-26T16:39:56.436Z,7.37
2019-03-26T16:45:07.069Z,7.37
2019-03-26T16:50:19.235Z,7.34
2019-03-26T16:55:27.027Z,7.20
2019-03-26T17:00:41.312Z,7.16
2019-03-26T17:05:49.345Z,7.08
2019-03-26T17:10:57.976Z,7.03
2019-03-26T17:16:06.792Z,6.96
2019-03-26T17:21:18.246Z,6.94
2019-03-26T17:26:26.156Z,6.81
2019-03-26T17:31:38.580Z,6.21
2019-03-26T17:36:48.103Z,6.00
2019-03-26T17:42:16.226Z,5.94
2019-03-26T17:47:14.387Z,5.93
2019-03-26T17:52:23.977Z,5.73
2019-03-26T17:57:36.408Z,6.07
2019-03-26T18:02:45.180Z,5.94
2019-03-26T18:07:56.241Z,5.72
2019-03-26T18:13:06.066Z,5.72
2019-03-26T18:18:17.920Z,5.96
2019-03-26T18:23:28.892Z,5.96
2019-03-26T18:28:38.474Z,5.91
2019-03-26T18:33:54.456Z,5.54
2019-03-26T18:39:07.096Z,5.70
2019-03-26T18:44:21.116Z,5.67
2019-03-26T18:49:41.464Z,5.68
2019-03-26T18:54:54.881Z,5.61
2019-03-26T19:00:05.083Z,5.40
2019-03-26T19:05:18.369Z,5.51
2019-03-26T19:10:40.424Z,5.57
2019-03-26T19:15:52.737Z,5.39
2019-03-26T19:21:09.258Z,5.55
2019-03-26T19:26:20.625Z,5.47
2019-03-26T19:31:30.861Z,5.62
2019-03-26T19:36:43.107Z,5.51
2019-03-26T19:41:55.007Z,5.86
2019-03-26T19:47:26.075Z,5.59
2019-03-26T19:52:36.094Z,5.77
2019-03-26T19:57:50.520Z,5.60
2019-03-26T20:03:02.380Z,5.87
2019-03-26T20:08:16.411Z,5.77
2019-03-26T20:13:32.639Z,5.76
2019-03-26T20:18:46.389Z,5.88
2019-03-26T20:23:55.205Z,5.65
2019-03-26T20:29:04.837Z,5.55
2019-03-26T20:34:15.434Z,5.51
2019-03-26T20:39:23.841Z,5.72
2019-03-26T20:44:36.215Z,5.76
2019-03-26T20:49:52.865Z,5.84
2019-03-26T20:55:13.369Z,5.65
2019-03-26T21:00:40.617Z,5.68
2019-03-26T21:05:49.994Z,5.63
2019-03-26T21:11:04.318Z,5.64
2019-03-26T21:16:13.075Z,5.57
2019-03-26T21:21:22.724Z,5.69
2019-03-26T21:26:31.269Z,5.59
2019-03-26T21:31:43.507Z,5.73
2019-03-26T21:36:51.419Z,6.03
2019-03-26T21:41:59.724Z,5.70
2019-03-26T21:47:12.527Z,5.70
2019-03-26T21:52:20.437Z,5.83
2019-03-26T21:57:33.428Z,5.83
2019-03-26T22:02:41.940Z,5.80
2019-03-26T22:07:52.411Z,5.55
2019-03-26T22:13:00.740Z,5.74
2019-03-26T22:18:10.654Z,5.97
2019-03-26T22:23:18.607Z,5.99
2019-03-26T22:28:26.531Z,6.04
2019-03-26T22:33:34.675Z,5.83
2019-03-26T22:38:42.964Z,5.99
2019-03-26T22:43:51.107Z,5.76
2019-03-26T22:49:03.790Z,6.01
2019-03-26T22:54:14.566Z,6.07
2019-03-26T22:59:22.431Z,6.09
2019-03-26T23:04:30.467Z,5.88
2019-03-26T23:09:39.228Z,5.88
2019-03-26T23:14:48.049Z,6.06
2019-03-26T23:19:57.555Z,5.93
2019-03-26T23:25:05.990Z,5.71
2019-03-26T23:30:18.191Z,5.83
2019-03-26T23:35:29.204Z,5.81
2019-03-26T23:40:38.844Z,5.91
2019-03-26T23:51:07.437Z,5.92
2019-03-26T23:56:15.490Z,5.58
